Hopkinton, MA (01748)

12:15 PM EDT on August 27, 2016 (GMT -0400)
Wood Street Hopkinton Water Dept. | | Change Station

Elev 325 ft 42.23 °N, 71.54 °W | Updated 2 seconds ago

Clear
Clear
87.3 °F
Feels Like 87 °F
N
2.0
Wind Variable Wind from ENE
Gusts 4.0 mph

Today
High -- | Low -- °F
--% Chance of Precip.
Yesterday
High -- | Low -- °F
Precip. -- in
Pressure 30.21 in
Visibility 10.0 miles
Clouds Clear
Heat Index 87 °F
Dew Point 59 °F
Humidity 39%
Rainfall 0.00 in
Snow Depth Not available.
6:06 AM 7:27 PM
Waning Crescent, 23% visible
METAR KORH 271554Z 03005KT 10SM CLR 27/14 A3022 RMK AO2 SLP228 T02670144
Pressure 30.21 in
Visibility 10.0 miles
Clouds Clear
Heat Index 87 °F
Dew Point 59 °F
Humidity 39%
Rainfall 0.00 in
Snow Depth Not available.
6:06 AM 7:27 PM
Waning Crescent, 23% visible
METAR KORH 271554Z 03005KT 10SM CLR 27/14 A3022 RMK AO2 SLP228 T02670144

10-Day Weather Forecast

Almanac

Astronomy

Aug. 27, 2016 Rise Set
Actual Time
Civil Twilight
Nautical Twilight
Astronomical Twilight
Moon
Length of Visible Light
Length of Day
Tomorrow will be .
, % of the Moon is Illuminated

Today's Extremes

State Highs State Lows

Community

WunderPhotos

Upload Photos

1,935,375 photos uploaded!

WunderBlog® & News

Nearby

Air Quality

  Air Quality AQ Index Pollutant
Not available.

Snow Depth

Station Depth Elevation

Earthquake Activity

City Distance Mag. Time & Date
Minimum magnitude displayed is 2.5.

Coastal Water Temperatures

Place Temperature

Stations

Nearby Weather Stations

Station Location Temp. Windchill Dew Point Humidity Wind Precip. Elev Updated Type
                   

Watches & Warnings

There are currently no watches in effect.